sensor_id;sensor_type;location;lat;lon;timestamp;temperature;humidity
69546;SHT31;56766;52.260;20.746;2022-11-03T00:01:38;8.43;85.38
69546;SHT31;56766;52.260;20.746;2022-11-03T00:04:10;8.38;85.30
69546;SHT31;56766;52.260;20.746;2022-11-03T00:06:40;8.34;85.30
69546;SHT31;56766;52.260;20.746;2022-11-03T00:09:10;8.32;85.24
69546;SHT31;56766;52.260;20.746;2022-11-03T00:11:40;8.29;85.20
69546;SHT31;56766;52.260;20.746;2022-11-03T00:14:08;8.27;85.18
69546;SHT31;56766;52.260;20.746;2022-11-03T00:16:37;8.21;85.09
69546;SHT31;56766;52.260;20.746;2022-11-03T00:19:05;8.15;85.12
69546;SHT31;56766;52.260;20.746;2022-11-03T00:21:34;8.10;85.15
69546;SHT31;56766;52.260;20.746;2022-11-03T00:24:02;8.06;85.23
69546;SHT31;56766;52.260;20.746;2022-11-03T00:26:34;8.05;85.26
69546;SHT31;56766;52.260;20.746;2022-11-03T00:29:11;8.02;85.20
69546;SHT31;56766;52.260;20.746;2022-11-03T00:31:41;7.99;85.20
69546;SHT31;56766;52.260;20.746;2022-11-03T00:34:09;7.99;85.20
69546;SHT31;56766;52.260;20.746;2022-11-03T00:36:39;7.97;85.20
69546;SHT31;56766;52.260;20.746;2022-11-03T00:39:08;7.95;85.15
69546;SHT31;56766;52.260;20.746;2022-11-03T00:41:36;7.94;85.10
69546;SHT31;56766;52.260;20.746;2022-11-03T00:44:04;7.93;85.04
69546;SHT31;56766;52.260;20.746;2022-11-03T00:46:31;7.89;84.90
69546;SHT31;56766;52.260;20.746;2022-11-03T00:49:02;7.82;84.95
69546;SHT31;56766;52.260;20.746;2022-11-03T00:51:30;7.78;84.99
69546;SHT31;56766;52.260;20.746;2022-11-03T00:54:01;7.77;85.00
69546;SHT31;56766;52.260;20.746;2022-11-03T00:56:38;7.78;84.95
69546;SHT31;56766;52.260;20.746;2022-11-03T00:59:08;7.75;84.85
69546;SHT31;56766;52.260;20.746;2022-11-03T01:01:38;7.72;84.80
69546;SHT31;56766;52.260;20.746;2022-11-03T01:04:08;7.71;84.76
69546;SHT31;56766;52.260;20.746;2022-11-03T01:06:57;7.65;84.70
69546;SHT31;56766;52.260;20.746;2022-11-03T01:09:33;7.60;84.68
69546;SHT31;56766;52.260;20.746;2022-11-03T01:12:14;7.56;84.60
69546;SHT31;56766;52.260;20.746;2022-11-03T01:14:47;7.49;84.64
69546;SHT31;56766;52.260;20.746;2022-11-03T01:17:19;7.45;84.76
69546;SHT31;56766;52.260;20.746;2022-11-03T01:19:48;7.41;84.71
69546;SHT31;56766;52.260;20.746;2022-11-03T01:22:16;7.37;84.71
69546;SHT31;56766;52.260;20.746;2022-11-03T01:24:44;7.33;84.70
69546;SHT31;56766;52.260;20.746;2022-11-03T01:27:16;7.29;84.66
69546;SHT31;56766;52.260;20.746;2022-11-03T01:29:44;7.26;84.69
69546;SHT31;56766;52.260;20.746;2022-11-03T01:32:12;7.19;84.54
69546;SHT31;56766;52.260;20.746;2022-11-03T01:34:39;7.10;84.63
69546;SHT31;56766;52.260;20.746;2022-11-03T01:37:06;7.03;84.71
69546;SHT31;56766;52.260;20.746;2022-11-03T01:39:33;6.98;84.68
69546;SHT31;56766;52.260;20.746;2022-11-03T01:42:00;6.96;84.76
69546;SHT31;56766;52.260;20.746;2022-11-03T01:47:05;6.92;84.75
69546;SHT31;56766;52.260;20.746;2022-11-03T01:49:44;6.87;84.74
69546;SHT31;56766;52.260;20.746;2022-11-03T01:52:23;6.82;84.93
69546;SHT31;56766;52.260;20.746;2022-11-03T01:55:04;6.85;85.04
69546;SHT31;56766;52.260;20.746;2022-11-03T01:57:49;6.88;85.00
69546;SHT31;56766;52.260;20.746;2022-11-03T02:00:18;6.88;85.01
69546;SHT31;56766;52.260;20.746;2022-11-03T02:02:46;6.85;85.02
69546;SHT31;56766;52.260;20.746;2022-11-03T02:05:15;6.84;85.10
69546;SHT31;56766;52.260;20.746;2022-11-03T02:08:10;6.83;85.09
69546;SHT31;56766;52.260;20.746;2022-11-03T02:10:41;6.81;85.01
69546;SHT31;56766;52.260;20.746;2022-11-03T02:13:20;6.75;84.98
69546;SHT31;56766;52.260;20.746;2022-11-03T02:15:53;6.72;85.01
69546;SHT31;56766;52.260;20.746;2022-11-03T02:18:31;6.69;85.14
69546;SHT31;56766;52.260;20.746;2022-11-03T02:21:24;6.66;85.28
69546;SHT31;56766;52.260;20.746;2022-11-03T02:24:14;6.66;85.46
69546;SHT31;56766;52.260;20.746;2022-11-03T02:26:53;6.66;85.57
69546;SHT31;56766;52.260;20.746;2022-11-03T02:29:22;6.67;85.61
69546;SHT31;56766;52.260;20.746;2022-11-03T02:31:57;6.67;85.62
69546;SHT31;56766;52.260;20.746;2022-11-03T02:37:19;6.59;85.79
69546;SHT31;56766;52.260;20.746;2022-11-03T02:40:05;6.59;85.81
69546;SHT31;56766;52.260;20.746;2022-11-03T02:42:41;6.62;85.90
69546;SHT31;56766;52.260;20.746;2022-11-03T02:45:16;6.61;85.79
69546;SHT31;56766;52.260;20.746;2022-11-03T02:47:48;6.58;85.79
69546;SHT31;56766;52.260;20.746;2022-11-03T02:50:16;6.54;85.90
69546;SHT31;56766;52.260;20.746;2022-11-03T02:52:46;6.52;86.10
69546;SHT31;56766;52.260;20.746;2022-11-03T02:55:33;6.54;86.19
69546;SHT31;56766;52.260;20.746;2022-11-03T03:01:02;6.53;85.92
69546;SHT31;56766;52.260;20.746;2022-11-03T03:03:47;6.49;86.00
69546;SHT31;56766;52.260;20.746;2022-11-03T03:07:11;6.47;86.06
69546;SHT31;56766;52.260;20.746;2022-11-03T03:09:46;6.47;85.99
69546;SHT31;56766;52.260;20.746;2022-11-03T03:12:24;6.41;85.74
69546;SHT31;56766;52.260;20.746;2022-11-03T03:14:54;6.34;85.72
69546;SHT31;56766;52.260;20.746;2022-11-03T03:20:32;6.23;85.73
69546;SHT31;56766;52.260;20.746;2022-11-03T03:23:17;6.15;85.76
69546;SHT31;56766;52.260;20.746;2022-11-03T03:25:57;6.11;85.78
69546;SHT31;56766;52.260;20.746;2022-11-03T03:28:40;6.05;85.90
69546;SHT31;56766;52.260;20.746;2022-11-03T03:31:14;6.02;85.88
69546;SHT31;56766;52.260;20.746;2022-11-03T03:33:47;5.95;85.95
69546;SHT31;56766;52.260;20.746;2022-11-03T03:36:20;5.92;86.36
69546;SHT31;56766;52.260;20.746;2022-11-03T03:39:03;5.95;86.55
69546;SHT31;56766;52.260;20.746;2022-11-03T03:41:36;5.99;86.50
69546;SHT31;56766;52.260;20.746;2022-11-03T03:44:07;6.02;86.38
69546;SHT31;56766;52.260;20.746;2022-11-03T03:46:42;6.06;86.41
69546;SHT31;56766;52.260;20.746;2022-11-03T03:49:12;6.08;86.28
69546;SHT31;56766;52.260;20.746;2022-11-03T03:51:41;6.07;86.30
69546;SHT31;56766;52.260;20.746;2022-11-03T03:54:09;6.03;86.30
69546;SHT31;56766;52.260;20.746;2022-11-03T03:56:42;6.02;86.52
69546;SHT31;56766;52.260;20.746;2022-11-03T03:59:14;6.03;86.60
69546;SHT31;56766;52.260;20.746;2022-11-03T04:01:41;6.02;86.58
69546;SHT31;56766;52.260;20.746;2022-11-03T04:04:07;6.01;86.60
69546;SHT31;56766;52.260;20.746;2022-11-03T04:06:34;5.98;86.66
69546;SHT31;56766;52.260;20.746;2022-11-03T04:09:00;5.98;86.66
69546;SHT31;56766;52.260;20.746;2022-11-03T04:11:27;5.98;86.62
69546;SHT31;56766;52.260;20.746;2022-11-03T04:14:12;5.97;86.61
69546;SHT31;56766;52.260;20.746;2022-11-03T04:16:58;5.95;86.77
69546;SHT31;56766;52.260;20.746;2022-11-03T04:19:43;5.94;86.80
69546;SHT31;56766;52.260;20.746;2022-11-03T04:22:32;5.93;86.84
69546;SHT31;56766;52.260;20.746;2022-11-03T04:24:59;5.93;86.95
69546;SHT31;56766;52.260;20.746;2022-11-03T04:27:34;5.93;86.82
69546;SHT31;56766;52.260;20.746;2022-11-03T04:32:47;5.91;86.44
69546;SHT31;56766;52.260;20.746;2022-11-03T04:35:24;5.86;86.46
69546;SHT31;56766;52.260;20.746;2022-11-03T04:38:08;5.83;86.51
69546;SHT31;56766;52.260;20.746;2022-11-03T04:40:54;5.82;86.60
69546;SHT31;56766;52.260;20.746;2022-11-03T04:43:34;5.81;86.62
69546;SHT31;56766;52.260;20.746;2022-11-03T04:46:04;5.81;86.62
69546;SHT31;56766;52.260;20.746;2022-11-03T04:48:36;5.79;86.73
69546;SHT31;56766;52.260;20.746;2022-11-03T04:51:16;5.82;86.81
69546;SHT31;56766;52.260;20.746;2022-11-03T04:53:48;5.84;86.87
69546;SHT31;56766;52.260;20.746;2022-11-03T04:56:23;5.84;86.77
69546;SHT31;56766;52.260;20.746;2022-11-03T04:58:52;5.85;86.69
69546;SHT31;56766;52.260;20.746;2022-11-03T05:01:21;5.82;86.59
69546;SHT31;56766;52.260;20.746;2022-11-03T05:03:51;5.77;86.58
69546;SHT31;56766;52.260;20.746;2022-11-03T05:06:26;5.77;86.55
69546;SHT31;56766;52.260;20.746;2022-11-03T05:08:57;5.73;86.59
69546;SHT31;56766;52.260;20.746;2022-11-03T05:11:31;5.70;86.54
69546;SHT31;56766;52.260;20.746;2022-11-03T05:14:18;5.65;86.61
69546;SHT31;56766;52.260;20.746;2022-11-03T05:16:48;5.62;86.74
69546;SHT31;56766;52.260;20.746;2022-11-03T05:19:26;5.61;86.80
69546;SHT31;56766;52.260;20.746;2022-11-03T05:21:57;5.63;86.81
69546;SHT31;56766;52.260;20.746;2022-11-03T05:24:26;5.63;86.80
69546;SHT31;56766;52.260;20.746;2022-11-03T05:26:58;5.64;86.84
69546;SHT31;56766;52.260;20.746;2022-11-03T05:29:37;5.65;86.91
69546;SHT31;56766;52.260;20.746;2022-11-03T05:32:13;5.68;86.92
69546;SHT31;56766;52.260;20.746;2022-11-03T05:34:46;5.69;86.80
69546;SHT31;56766;52.260;20.746;2022-11-03T05:37:31;5.70;86.64
69546;SHT31;56766;52.260;20.746;2022-11-03T05:40:14;5.67;86.43
69546;SHT31;56766;52.260;20.746;2022-11-03T05:42:55;5.62;86.36
69546;SHT31;56766;52.260;20.746;2022-11-03T05:45:32;5.56;86.34
69546;SHT31;56766;52.260;20.746;2022-11-03T05:48:17;5.51;86.40
69546;SHT31;56766;52.260;20.746;2022-11-03T05:50:50;5.48;86.28
69546;SHT31;56766;52.260;20.746;2022-11-03T05:53:25;5.47;86.25
69546;SHT31;56766;52.260;20.746;2022-11-03T05:55:57;5.45;86.22
69546;SHT31;56766;52.260;20.746;2022-11-03T05:58:28;5.44;86.30
69546;SHT31;56766;52.260;20.746;2022-11-03T06:01:00;5.48;86.40
69546;SHT31;56766;52.260;20.746;2022-11-03T06:03:34;5.52;86.34
69546;SHT31;56766;52.260;20.746;2022-11-03T06:06:14;5.54;86.30
69546;SHT31;56766;52.260;20.746;2022-11-03T06:08:44;5.56;86.20
69546;SHT31;56766;52.260;20.746;2022-11-03T06:11:24;5.56;86.12
69546;SHT31;56766;52.260;20.746;2022-11-03T06:13:56;5.53;86.06
69546;SHT31;56766;52.260;20.746;2022-11-03T06:16:36;5.50;86.09
69546;SHT31;56766;52.260;20.746;2022-11-03T06:22:04;5.65;86.48
69546;SHT31;56766;52.260;20.746;2022-11-03T06:24:58;5.80;86.44
69546;SHT31;56766;52.260;20.746;2022-11-03T06:27:29;5.92;86.41
69546;SHT31;56766;52.260;20.746;2022-11-03T06:32:51;6.20;86.49
69546;SHT31;56766;52.260;20.746;2022-11-03T06:35:20;6.32;86.36
69546;SHT31;56766;52.260;20.746;2022-11-03T06:37:47;6.39;86.47
69546;SHT31;56766;52.260;20.746;2022-11-03T06:42:41;6.66;86.49
69546;SHT31;56766;52.260;20.746;2022-11-03T06:45:19;6.81;86.44
69546;SHT31;56766;52.260;20.746;2022-11-03T06:47:49;6.97;86.32
69546;SHT31;56766;52.260;20.746;2022-11-03T06:50:24;7.09;86.25
69546;SHT31;56766;52.260;20.746;2022-11-03T06:52:58;7.21;86.24
69546;SHT31;56766;52.260;20.746;2022-11-03T06:55:31;7.34;86.18
69546;SHT31;56766;52.260;20.746;2022-11-03T06:58:30;7.45;86.11
69546;SHT31;56766;52.260;20.746;2022-11-03T07:01:13;7.58;86.10
69546;SHT31;56766;52.260;20.746;2022-11-03T07:03:44;7.74;86.02
69546;SHT31;56766;52.260;20.746;2022-11-03T07:06:20;7.90;85.89
69546;SHT31;56766;52.260;20.746;2022-11-03T07:08:56;8.03;85.69
69546;SHT31;56766;52.260;20.746;2022-11-03T07:11:31;8.10;85.64
69546;SHT31;56766;52.260;20.746;2022-11-03T07:14:23;8.19;85.69
69546;SHT31;56766;52.260;20.746;2022-11-03T07:16:56;8.31;85.66
69546;SHT31;56766;52.260;20.746;2022-11-03T07:19:42;8.47;85.55
69546;SHT31;56766;52.260;20.746;2022-11-03T07:24:52;8.65;85.30
69546;SHT31;56766;52.260;20.746;2022-11-03T07:27:36;8.73;85.21
69546;SHT31;56766;52.260;20.746;2022-11-03T07:30:15;8.78;85.10
69546;SHT31;56766;52.260;20.746;2022-11-03T07:32:45;8.89;85.03
69546;SHT31;56766;52.260;20.746;2022-11-03T07:35:22;8.97;84.86
69546;SHT31;56766;52.260;20.746;2022-11-03T07:37:54;9.06;84.77
69546;SHT31;56766;52.260;20.746;2022-11-03T07:40:26;9.14;84.65
69546;SHT31;56766;52.260;20.746;2022-11-03T07:43:10;9.21;84.39
69546;SHT31;56766;52.260;20.746;2022-11-03T07:45:51;9.33;84.40
69546;SHT31;56766;52.260;20.746;2022-11-03T07:48:28;9.49;84.42
69546;SHT31;56766;52.260;20.746;2022-11-03T07:51:15;9.62;84.15
69546;SHT31;56766;52.260;20.746;2022-11-03T07:54:02;9.72;83.82
69546;SHT31;56766;52.260;20.746;2022-11-03T07:56:44;9.86;83.82
69546;SHT31;56766;52.260;20.746;2022-11-03T07:59:21;10.00;83.62
69546;SHT31;56766;52.260;20.746;2022-11-03T08:01:53;10.09;83.34
69546;SHT31;56766;52.260;20.746;2022-11-03T08:04:24;10.18;83.15
69546;SHT31;56766;52.260;20.746;2022-11-03T08:06:53;10.28;82.96
69546;SHT31;56766;52.260;20.746;2022-11-03T08:09:20;10.37;82.77
69546;SHT31;56766;52.260;20.746;2022-11-03T08:11:49;10.47;82.63
69546;SHT31;56766;52.260;20.746;2022-11-03T08:14:17;10.52;82.22
69546;SHT31;56766;52.260;20.746;2022-11-03T08:16:44;10.60;82.43
69546;SHT31;56766;52.260;20.746;2022-11-03T08:19:11;10.72;82.46
69546;SHT31;56766;52.260;20.746;2022-11-03T08:21:37;10.82;82.20
69546;SHT31;56766;52.260;20.746;2022-11-03T08:24:05;10.91;82.08
69546;SHT31;56766;52.260;20.746;2022-11-03T08:26:32;10.96;81.54
69546;SHT31;56766;52.260;20.746;2022-11-03T08:28:58;11.09;81.93
69546;SHT31;56766;52.260;20.746;2022-11-03T08:31:25;11.21;81.87
69546;SHT31;56766;52.260;20.746;2022-11-03T08:33:52;11.32;81.72
69546;SHT31;56766;52.260;20.746;2022-11-03T08:36:19;11.45;81.48
69546;SHT31;56766;52.260;20.746;2022-11-03T08:38:46;11.57;81.07
69546;SHT31;56766;52.260;20.746;2022-11-03T08:41:12;11.63;80.57
69546;SHT31;56766;52.260;20.746;2022-11-03T08:43:39;11.70;80.49
69546;SHT31;56766;52.260;20.746;2022-11-03T08:46:06;11.79;80.58
69546;SHT31;56766;52.260;20.746;2022-11-03T08:48:33;11.89;80.41
69546;SHT31;56766;52.260;20.746;2022-11-03T08:50:59;11.98;80.06
69546;SHT31;56766;52.260;20.746;2022-11-03T08:53:26;12.03;79.63
69546;SHT31;56766;52.260;20.746;2022-11-03T08:55:53;12.05;79.37
69546;SHT31;56766;52.260;20.746;2022-11-03T08:58:21;12.10;79.44
69546;SHT31;56766;52.260;20.746;2022-11-03T09:00:48;12.19;79.58
69546;SHT31;56766;52.260;20.746;2022-11-03T09:03:15;12.28;79.21
69546;SHT31;56766;52.260;20.746;2022-11-03T09:05:43;12.33;79.01
69546;SHT31;56766;52.260;20.746;2022-11-03T09:08:10;12.38;78.53
69546;SHT31;56766;52.260;20.746;2022-11-03T09:10:36;12.50;78.58
69546;SHT31;56766;52.260;20.746;2022-11-03T09:13:03;12.59;78.37
69546;SHT31;56766;52.260;20.746;2022-11-03T09:15:31;12.63;78.38
69546;SHT31;56766;52.260;20.746;2022-11-03T09:17:58;12.64;78.36
69546;SHT31;56766;52.260;20.746;2022-11-03T09:20:25;12.66;78.27
69546;SHT31;56766;52.260;20.746;2022-11-03T09:22:52;12.76;78.22
69546;SHT31;56766;52.260;20.746;2022-11-03T09:25:19;12.83;77.99
69546;SHT31;56766;52.260;20.746;2022-11-03T09:27:45;12.90;77.71
69546;SHT31;56766;52.260;20.746;2022-11-03T09:30:12;12.97;77.67
69546;SHT31;56766;52.260;20.746;2022-11-03T09:32:40;13.03;77.26
69546;SHT31;56766;52.260;20.746;2022-11-03T09:35:06;13.08;77.27
69546;SHT31;56766;52.260;20.746;2022-11-03T09:37:35;13.13;77.32
69546;SHT31;56766;52.260;20.746;2022-11-03T09:40:02;13.20;77.12
69546;SHT31;56766;52.260;20.746;2022-11-03T09:42:30;13.24;76.63
69546;SHT31;56766;52.260;20.746;2022-11-03T09:45:00;13.33;76.33
69546;SHT31;56766;52.260;20.746;2022-11-03T09:47:33;13.38;75.90
69546;SHT31;56766;52.260;20.746;2022-11-03T09:50:02;13.39;75.84
69546;SHT31;56766;52.260;20.746;2022-11-03T09:52:32;13.41;75.78
69546;SHT31;56766;52.260;20.746;2022-11-03T09:54:58;13.44;75.59
69546;SHT31;56766;52.260;20.746;2022-11-03T09:57:26;13.46;75.91
69546;SHT31;56766;52.260;20.746;2022-11-03T09:59:54;13.51;76.06
69546;SHT31;56766;52.260;20.746;2022-11-03T10:02:30;13.57;75.72
69546;SHT31;56766;52.260;20.746;2022-11-03T10:04:58;13.62;75.24
69546;SHT31;56766;52.260;20.746;2022-11-03T10:07:29;13.65;74.68
69546;SHT31;56766;52.260;20.746;2022-11-03T10:09:58;13.71;74.55
69546;SHT31;56766;52.260;20.746;2022-11-03T10:12:31;13.77;74.67
69546;SHT31;56766;52.260;20.746;2022-11-03T10:15:02;13.79;74.62
69546;SHT31;56766;52.260;20.746;2022-11-03T10:17:29;13.80;74.51
69546;SHT31;56766;52.260;20.746;2022-11-03T10:19:57;13.83;73.50
69546;SHT31;56766;52.260;20.746;2022-11-03T10:22:23;13.84;73.62
69546;SHT31;56766;52.260;20.746;2022-11-03T10:28:15;13.90;73.17
69546;SHT31;56766;52.260;20.746;2022-11-03T10:31:00;13.98;73.06
69546;SHT31;56766;52.260;20.746;2022-11-03T10:38:41;14.08;73.52
69546;SHT31;56766;52.260;20.746;2022-11-03T10:43:42;14.14;72.80
69546;SHT31;56766;52.260;20.746;2022-11-03T10:46:19;14.18;72.57
69546;SHT31;56766;52.260;20.746;2022-11-03T10:49:03;14.24;72.61
69546;SHT31;56766;52.260;20.746;2022-11-03T10:51:34;14.29;72.39
69546;SHT31;56766;52.260;20.746;2022-11-03T10:54:02;14.32;72.14
69546;SHT31;56766;52.260;20.746;2022-11-03T10:56:32;14.34;72.13
69546;SHT31;56766;52.260;20.746;2022-11-03T10:58:59;14.36;71.24
69546;SHT31;56766;52.260;20.746;2022-11-03T11:01:27;14.37;70.95
69546;SHT31;56766;52.260;20.746;2022-11-03T11:03:54;14.39;71.11
69546;SHT31;56766;52.260;20.746;2022-11-03T11:06:28;14.42;71.57
69546;SHT31;56766;52.260;20.746;2022-11-03T11:09:02;14.40;71.82
69546;SHT31;56766;52.260;20.746;2022-11-03T11:11:31;14.38;71.58
69546;SHT31;56766;52.260;20.746;2022-11-03T11:16:57;14.32;70.07
69546;SHT31;56766;52.260;20.746;2022-11-03T11:19:26;14.35;70.59
69546;SHT31;56766;52.260;20.746;2022-11-03T11:29:58;14.43;68.12
69546;SHT31;56766;52.260;20.746;2022-11-03T11:32:57;14.45;69.23
69546;SHT31;56766;52.260;20.746;2022-11-03T11:37:53;14.35;68.56
69546;SHT31;56766;52.260;20.746;2022-11-03T11:49:35;14.00;67.11
69546;SHT31;56766;52.260;20.746;2022-11-03T11:51:41;13.90;66.91
69546;SHT31;56766;52.260;20.746;2022-11-03T11:54:16;13.84;66.48
69546;SHT31;56766;52.260;20.746;2022-11-03T11:56:48;13.81;67.36
69546;SHT31;56766;52.260;20.746;2022-11-03T11:59:20;13.88;67.88
69546;SHT31;56766;52.260;20.746;2022-11-03T12:01:51;13.94;67.73
69546;SHT31;56766;52.260;20.746;2022-11-03T12:04:28;13.95;67.76
69546;SHT31;56766;52.260;20.746;2022-11-03T12:06:58;13.98;67.99
69546;SHT31;56766;52.260;20.746;2022-11-03T12:09:27;14.02;67.37
69546;SHT31;56766;52.260;20.746;2022-11-03T12:11:56;14.01;67.28
69546;SHT31;56766;52.260;20.746;2022-11-03T12:14:33;14.04;67.53
69546;SHT31;56766;52.260;20.746;2022-11-03T12:19:52;14.06;66.26
69546;SHT31;56766;52.260;20.746;2022-11-03T12:25:00;14.15;66.73
69546;SHT31;56766;52.260;20.746;2022-11-03T12:30:02;14.21;67.06
69546;SHT31;56766;52.260;20.746;2022-11-03T12:32:30;14.21;66.48
69546;SHT31;56766;52.260;20.746;2022-11-03T12:34:58;14.19;66.02
69546;SHT31;56766;52.260;20.746;2022-11-03T12:37:25;14.15;65.79
69546;SHT31;56766;52.260;20.746;2022-11-03T12:39:51;14.15;65.99
69546;SHT31;56766;52.260;20.746;2022-11-03T12:42:18;14.14;65.05
69546;SHT31;56766;52.260;20.746;2022-11-03T12:44:45;14.13;65.15
69546;SHT31;56766;52.260;20.746;2022-11-03T12:47:12;14.15;65.33
69546;SHT31;56766;52.260;20.746;2022-11-03T12:49:38;14.16;65.28
69546;SHT31;56766;52.260;20.746;2022-11-03T12:52:05;14.16;64.64
69546;SHT31;56766;52.260;20.746;2022-11-03T12:54:33;14.14;64.46
69546;SHT31;56766;52.260;20.746;2022-11-03T12:57:00;14.11;64.62
69546;SHT31;56766;52.260;20.746;2022-11-03T12:59:27;14.10;64.55
69546;SHT31;56766;52.260;20.746;2022-11-03T13:01:54;14.07;65.51
69546;SHT31;56766;52.260;20.746;2022-11-03T13:04:20;14.02;65.52
69546;SHT31;56766;52.260;20.746;2022-11-03T13:06:47;14.00;65.25
69546;SHT31;56766;52.260;20.746;2022-11-03T13:09:14;14.00;65.80
69546;SHT31;56766;52.260;20.746;2022-11-03T13:11:40;14.01;65.59
69546;SHT31;56766;52.260;20.746;2022-11-03T13:14:25;14.03;65.23
69546;SHT31;56766;52.260;20.746;2022-11-03T13:16:52;14.05;65.58
69546;SHT31;56766;52.260;20.746;2022-11-03T13:19:19;14.07;65.27
69546;SHT31;56766;52.260;20.746;2022-11-03T13:21:45;14.09;65.17
69546;SHT31;56766;52.260;20.746;2022-11-03T13:24:12;14.08;64.36
69546;SHT31;56766;52.260;20.746;2022-11-03T13:26:39;14.08;64.33
69546;SHT31;56766;52.260;20.746;2022-11-03T13:29:05;14.07;64.25
69546;SHT31;56766;52.260;20.746;2022-11-03T13:31:32;14.02;64.53
69546;SHT31;56766;52.260;20.746;2022-11-03T13:34:01;13.96;64.70
69546;SHT31;56766;52.260;20.746;2022-11-03T13:36:27;13.87;63.87
69546;SHT31;56766;52.260;20.746;2022-11-03T13:38:54;13.77;64.35
69546;SHT31;56766;52.260;20.746;2022-11-03T13:41:21;13.66;65.02
69546;SHT31;56766;52.260;20.746;2022-11-03T13:43:47;13.57;65.49
69546;SHT31;56766;52.260;20.746;2022-11-03T13:46:14;13.45;65.56
69546;SHT31;56766;52.260;20.746;2022-11-03T13:48:40;13.35;65.55
69546;SHT31;56766;52.260;20.746;2022-11-03T13:51:07;13.25;66.33
69546;SHT31;56766;52.260;20.746;2022-11-03T13:53:37;13.15;66.98
69546;SHT31;56766;52.260;20.746;2022-11-03T13:56:04;13.06;67.31
69546;SHT31;56766;52.260;20.746;2022-11-03T13:58:30;12.98;67.58
69546;SHT31;56766;52.260;20.746;2022-11-03T14:00:57;12.92;67.62
69546;SHT31;56766;52.260;20.746;2022-11-03T14:03:24;12.85;67.61
69546;SHT31;56766;52.260;20.746;2022-11-03T14:05:50;12.78;67.86
69546;SHT31;56766;52.260;20.746;2022-11-03T14:08:17;12.71;68.27
69546;SHT31;56766;52.260;20.746;2022-11-03T14:10:44;12.65;68.57
69546;SHT31;56766;52.260;20.746;2022-11-03T14:13:10;12.60;68.78
69546;SHT31;56766;52.260;20.746;2022-11-03T14:15:37;12.54;68.74
69546;SHT31;56766;52.260;20.746;2022-11-03T14:18:04;12.48;68.74
69546;SHT31;56766;52.260;20.746;2022-11-03T14:20:30;12.41;68.89
69546;SHT31;56766;52.260;20.746;2022-11-03T14:22:57;12.31;69.18
69546;SHT31;56766;52.260;20.746;2022-11-03T14:25:24;12.22;69.36
69546;SHT31;56766;52.260;20.746;2022-11-03T14:27:50;12.11;69.64
69546;SHT31;56766;52.260;20.746;2022-11-03T14:30:17;12.03;69.78
69546;SHT31;56766;52.260;20.746;2022-11-03T14:32:44;11.98;69.89
69546;SHT31;56766;52.260;20.746;2022-11-03T14:35:10;11.92;70.14
69546;SHT31;56766;52.260;20.746;2022-11-03T14:37:37;11.87;70.43
69546;SHT31;56766;52.260;20.746;2022-11-03T14:40:05;11.80;70.50
69546;SHT31;56766;52.260;20.746;2022-11-03T14:42:32;11.72;70.52
69546;SHT31;56766;52.260;20.746;2022-11-03T14:44:59;11.62;70.53
69546;SHT31;56766;52.260;20.746;2022-11-03T14:47:26;11.48;70.83
69546;SHT31;56766;52.260;20.746;2022-11-03T14:49:55;11.35;71.24
69546;SHT31;56766;52.260;20.746;2022-11-03T14:52:22;11.23;71.48
69546;SHT31;56766;52.260;20.746;2022-11-03T14:54:48;11.12;71.80
69546;SHT31;56766;52.260;20.746;2022-11-03T14:57:16;10.99;72.14
69546;SHT31;56766;52.260;20.746;2022-11-03T14:59:42;10.89;72.42
69546;SHT31;56766;52.260;20.746;2022-11-03T15:02:09;10.77;72.63
69546;SHT31;56766;52.260;20.746;2022-11-03T15:04:36;10.64;72.91
69546;SHT31;56766;52.260;20.746;2022-11-03T15:07:02;10.51;73.22
69546;SHT31;56766;52.260;20.746;2022-11-03T15:09:29;10.39;73.68
69546;SHT31;56766;52.260;20.746;2022-11-03T15:11:56;10.25;74.04
69546;SHT31;56766;52.260;20.746;2022-11-03T15:14:22;10.12;74.30
69546;SHT31;56766;52.260;20.746;2022-11-03T15:16:49;9.97;74.62
69546;SHT31;56766;52.260;20.746;2022-11-03T15:19:16;9.79;75.13
69546;SHT31;56766;52.260;20.746;2022-11-03T15:21:42;9.62;75.47
69546;SHT31;56766;52.260;20.746;2022-11-03T15:24:09;9.51;75.62
69546;SHT31;56766;52.260;20.746;2022-11-03T15:26:36;9.44;75.92
69546;SHT31;56766;52.260;20.746;2022-11-03T15:29:02;9.37;76.10
69546;SHT31;56766;52.260;20.746;2022-11-03T15:31:29;9.28;76.37
69546;SHT31;56766;52.260;20.746;2022-11-03T15:33:55;9.19;76.50
69546;SHT31;56766;52.260;20.746;2022-11-03T15:36:22;9.12;76.63
69546;SHT31;56766;52.260;20.746;2022-11-03T15:38:49;9.03;76.92
69546;SHT31;56766;52.260;20.746;2022-11-03T15:41:16;8.86;77.25
69546;SHT31;56766;52.260;20.746;2022-11-03T15:43:48;8.78;77.37
69546;SHT31;56766;52.260;20.746;2022-11-03T15:46:17;8.76;77.36
69546;SHT31;56766;52.260;20.746;2022-11-03T15:48:45;8.73;77.30
69546;SHT31;56766;52.260;20.746;2022-11-03T15:51:11;8.72;77.14
69546;SHT31;56766;52.260;20.746;2022-11-03T15:53:38;8.65;77.17
69546;SHT31;56766;52.260;20.746;2022-11-03T15:56:06;8.58;77.30
69546;SHT31;56766;52.260;20.746;2022-11-03T15:58:33;8.49;77.48
69546;SHT31;56766;52.260;20.746;2022-11-03T16:01:00;8.39;77.66
69546;SHT31;56766;52.260;20.746;2022-11-03T16:03:29;8.33;77.74
69546;SHT31;56766;52.260;20.746;2022-11-03T16:05:57;8.26;77.81
69546;SHT31;56766;52.260;20.746;2022-11-03T16:08:23;8.19;77.87
69546;SHT31;56766;52.260;20.746;2022-11-03T16:10:50;8.11;77.90
69546;SHT31;56766;52.260;20.746;2022-11-03T16:13:17;8.00;78.14
69546;SHT31;56766;52.260;20.746;2022-11-03T16:15:43;7.85;78.77
69546;SHT31;56766;52.260;20.746;2022-11-03T16:18:10;7.68;79.29
69546;SHT31;56766;52.260;20.746;2022-11-03T16:20:37;7.59;79.59
69546;SHT31;56766;52.260;20.746;2022-11-03T16:23:04;7.51;79.56
69546;SHT31;56766;52.260;20.746;2022-11-03T16:25:30;7.43;79.58
69546;SHT31;56766;52.260;20.746;2022-11-03T16:27:57;7.33;79.97
69546;SHT31;56766;52.260;20.746;2022-11-03T16:30:24;7.20;80.78
69546;SHT31;56766;52.260;20.746;2022-11-03T16:32:50;7.08;81.28
69546;SHT31;56766;52.260;20.746;2022-11-03T16:35:19;6.95;81.48
69546;SHT31;56766;52.260;20.746;2022-11-03T16:37:47;6.84;81.51
69546;SHT31;56766;52.260;20.746;2022-11-03T16:40:14;6.73;81.58
69546;SHT31;56766;52.260;20.746;2022-11-03T16:42:41;6.66;81.54
69546;SHT31;56766;52.260;20.746;2022-11-03T16:45:20;6.65;81.41
69546;SHT31;56766;52.260;20.746;2022-11-03T16:47:49;6.63;81.29
69546;SHT31;56766;52.260;20.746;2022-11-03T16:50:18;6.64;81.19
69546;SHT31;56766;52.260;20.746;2022-11-03T16:52:46;6.61;81.14
69546;SHT31;56766;52.260;20.746;2022-11-03T16:55:16;6.62;81.10
69546;SHT31;56766;52.260;20.746;2022-11-03T16:57:45;6.60;81.03